x

Destruction Island, Wa (desw1) Weather Station

10:00pm - Wed 1st Apr 2015 All times are PDT. -7 hours from GMT.

  • Wind
    13mph, 15mph gusts
  • Air Temp 49°f
  • Sea Pressure 1027.2mb
  • Destruction Island, Wa
  • Destruction Island, Wa

More Historic Weather Station data

Upgrade to MSW Pro to gain access to the past 30 days of data for over 8000 Wavebouys and Weather Stations around the globe.

Join Pro

Comparision Forecast

View Surf forecast
   
Wed 04/01 10:00pm 13 15 mph 1027.2mb 49f
9:00pm 18 20 mph 1026.9mb 49f
8:00pm 18 20 mph 1026.5mb 49f
7:00pm 17 20 mph 1026.4mb 49f
6:00pm 15 18 mph 1026.2mb 49f
5:00pm 15 18 mph 1026.2mb 50f
4:00pm 13 15 mph 1026.3mb 50f
3:00pm 10 13 mph 1026.2mb 49f
2:00pm 8 10 mph 1026.3mb 49f
1:00pm 6 8 mph 1026.3mb 48f
12:00pm 5 6 mph 1026.3mb 48f
11:00am 5 7 mph 1026.2mb 46f
10:00am 3 5 mph 1026.1mb 43f
9:00am 16 17 mph 1025.4mb 45f
8:00am 8 9 mph 1024.9mb 46f
7:00am 11 13 mph 1024.8mb 44f
6:00am 8
mph
1024.5mb 45f
5:00am 7 8 mph 1024.4mb 45f
4:00am 8
mph
1024.2mb 45f
3:00am 18 22 mph 1024.1mb 47f
2:00am 9 10 mph 1024.1mb 48f
1:00am 11 13 mph 1023.9mb 48f
12:00am 11 13 mph 1023.6mb 48f
Tue 03/31 11:00pm 15 16 mph 1023.3mb 49f
10:00pm 14 16 mph 1022.9mb 48f
9:00pm 14 15 mph 1022.3mb 49f
8:00pm 16 20 mph 1021.9mb 49f
7:00pm 8 10 mph 1021.7mb 48f
6:00pm 14 16 mph 1021.6mb 47f
5:00pm 22 26 mph 1021.1mb 47f
4:00pm 20 22 mph 1021mb 50f
3:00pm 23 25 mph 1020.5mb 50f
2:00pm 11 14 mph 1020.3mb 51f
1:00pm 11
mph
1020mb 53f
12:00pm 9 10 mph 1019.7mb 51f
11:00am 7 15 mph 1018.9mb 52f
10:00am 14 16 mph 1018.2mb 50f
9:00am 16 18 mph 1017.3mb 49f
8:00am 14 15 mph 1017mb 50f
7:00am 18 22 mph 1016.5mb 49f
6:00am 26 37 mph 1015.9mb 48f
5:00am 10 13 mph 1015.3mb 49f
4:00am 15 16 mph 1014.8mb 49f
3:00am 17 20 mph 1014.4mb 49f
2:00am 13 15 mph 1014mb 48f
1:00am 13 15 mph 1013.3mb 47f
12:00am 18 22 mph 1012.3mb 47f
Mon 03/30 11:00pm 25 30 mph 1011.8mb 47f
10:00pm 34 38 mph 1010.8mb 47f
9:00pm 26 29 mph 1009.6mb 52f
8:00pm 24 28 mph 1010.4mb 52f
7:00pm 26 30 mph 1011.7mb 52f
6:00pm 30 31 mph 1012.3mb 53f
5:00pm 28 31 mph 1013mb 53f
4:00pm 25 30 mph 1013.7mb 53f
3:00pm 24 31 mph 1014.6mb 53f
2:00pm 30 33 mph 1015.5mb 53f
1:00pm 26 30 mph 1016.4mb 52f
12:00pm 23 28 mph 1017.1mb 52f
11:00am 25 29 mph 1017.3mb 52f
10:00am 28 30 mph 1017.3mb 52f
9:00am 24 29 mph 1017.7mb 52f
8:00am 25 28 mph 1017.7mb 52f
7:00am 26 29 mph 1017.8mb 52f
6:00am 22 24 mph 1018mb 53f
5:00am 20 23 mph 1018.4mb 52f
4:00am 21 25 mph 1018.7mb 52f
3:00am 22 25 mph 1019.3mb 53f
2:00am 22 23 mph 1019.5mb 53f
1:00am 23 24 mph 1019.6mb 53f
12:00am 21 23 mph 1020mb 53f
Sun 03/29 11:00pm 18 22 mph 1020.4mb 53f
10:00pm 22 24 mph 1020.5mb 53f
9:00pm 22 23 mph 1020.4mb 53f
8:00pm 20 22 mph 1020.4mb 53f
7:00pm 20 21 mph 1020.7mb 53f
6:00pm 20 21 mph 1021.2mb 53f
5:00pm 21 24 mph 1021.5mb 53f
4:00pm 24 26 mph 1021.7mb 53f
3:00pm 25 29 mph 1022.1mb 53f
2:00pm 24 26 mph 1022.4mb 53f
1:00pm 26 32 mph 1022.4mb 52f
12:00pm 24 28 mph 1022.6mb 51f
11:00am 30 31 mph 1022.6mb 50f
10:00am 33 36 mph 1022.4mb 50f
9:00am 29 32 mph 1022.4mb 49f
8:00am 30 32 mph 1022.6mb 49f
7:00am 30 33 mph 1022.8mb 49f